Terminal Aerodrome Forecast
Issued by NWS

Home | Current Version | Previous Version | Text Only | Print | Product List | Glossary On
Versions: 1 2 3 4 5 6 7 8 9 10 11 12 13 14 15 16
000
FTUS42 KMLB 032340
TAFFPR
TAF
KFPR 032340Z 0400/0424 11010KT P6SM FEW025
     FM040300 13006KT P6SM SCT020
      TEMPO 0409/0412 4SM BR SCT010 BKN020
     FM041400 14012KT P6SM SCT020 SCT035=

USA.gov is the U.S. government's official web portal to all federal, state and local government web resources and services.